createdAt,value
2018-03-30T00:00:15.670Z,27.69
2018-03-30T00:01:15.626Z,27.65
2018-03-30T00:02:15.627Z,27.69
2018-03-30T00:03:16.524Z,27.66
2018-03-30T00:04:15.544Z,27.57
2018-03-30T00:05:16.073Z,27.55
2018-03-30T00:06:15.546Z,27.62
2018-03-30T00:07:15.528Z,27.64
2018-03-30T00:08:15.548Z,27.51
2018-03-30T00:09:15.677Z,27.46
2018-03-30T00:10:15.417Z,27.45
2018-03-30T00:11:15.391Z,27.36
2018-03-30T00:12:15.384Z,27.43
2018-03-30T00:13:15.335Z,27.31
2018-03-30T00:14:15.866Z,27.30
2018-03-30T00:15:16.069Z,27.34
2018-03-30T00:16:15.283Z,27.30
2018-03-30T00:17:15.872Z,27.31
2018-03-30T00:18:15.233Z,27.31
2018-03-30T00:19:15.190Z,27.30
2018-03-30T00:20:15.218Z,27.24
2018-03-30T00:21:15.353Z,27.15
2018-03-30T00:22:15.678Z,27.13
2018-03-30T00:23:15.142Z,27.09
2018-03-30T00:24:15.073Z,27.09
2018-03-30T00:25:15.115Z,26.99
2018-03-30T00:26:15.100Z,26.93
2018-03-30T00:27:15.211Z,26.94
2018-03-30T00:28:14.989Z,26.90
2018-03-30T00:29:15.522Z,26.82
2018-03-30T00:30:14.939Z,26.76
2018-03-30T00:31:15.446Z,26.82
2018-03-30T00:32:15.090Z,26.87
2018-03-30T00:33:14.877Z,26.75
2018-03-30T00:34:14.843Z,26.79
2018-03-30T00:35:14.907Z,26.72
2018-03-30T00:36:14.786Z,26.78
2018-03-30T00:37:14.970Z,26.78
2018-03-30T00:38:15.292Z,26.82
2018-03-30T00:39:15.253Z,26.79
2018-03-30T00:40:15.558Z,26.81
2018-03-30T00:41:15.199Z,26.67
2018-03-30T00:42:14.917Z,26.69
2018-03-30T00:43:14.603Z,26.75
2018-03-30T00:44:15.131Z,26.74
2018-03-30T00:45:14.563Z,26.68
2018-03-30T00:46:15.118Z,26.64
2018-03-30T00:47:15.287Z,26.68
2018-03-30T00:48:14.502Z,26.67
2018-03-30T00:49:15.122Z,26.60
2018-03-30T00:50:14.898Z,26.52
2018-03-30T00:51:14.968Z,26.52
2018-03-30T00:52:14.417Z,26.42
2018-03-30T00:53:15.118Z,26.50
2018-03-30T00:54:14.352Z,26.47
2018-03-30T00:55:14.867Z,26.44
2018-03-30T00:56:14.292Z,26.37
2018-03-30T00:57:14.283Z,26.39
2018-03-30T00:58:14.709Z,26.30
2018-03-30T00:59:14.477Z,26.34
2018-03-30T01:00:14.196Z,26.27
2018-03-30T01:01:14.168Z,26.23
2018-03-30T01:02:14.243Z,26.24
2018-03-30T01:03:14.125Z,26.20
2018-03-30T01:04:14.146Z,26.22
2018-03-30T01:05:14.327Z,26.17
2018-03-30T01:06:14.070Z,26.22
2018-03-30T01:07:14.592Z,26.22
2018-03-30T01:08:14.421Z,26.15
2018-03-30T01:09:14.492Z,26.06
2018-03-30T01:10:14.695Z,26.11
2018-03-30T01:11:14.830Z,26.07
2018-03-30T01:12:14.447Z,26.11
2018-03-30T01:13:13.861Z,26.06
2018-03-30T01:14:13.857Z,26.07
2018-03-30T01:15:14.553Z,26.06
2018-03-30T01:16:13.784Z,26.03
2018-03-30T01:17:13.805Z,26.12
2018-03-30T01:18:14.319Z,26.01
2018-03-30T01:19:13.748Z,26.03
2018-03-30T01:20:14.485Z,26.01
2018-03-30T01:21:13.701Z,25.99
2018-03-30T01:22:13.635Z,25.99
2018-03-30T01:23:13.647Z,26.03
2018-03-30T01:24:13.611Z,25.97
2018-03-30T01:25:13.840Z,26.01
2018-03-30T01:26:14.102Z,25.99
2018-03-30T01:27:13.521Z,25.97
2018-03-30T01:28:13.512Z,25.97
2018-03-30T01:29:13.459Z,26.00
2018-03-30T01:30:13.982Z,25.94
2018-03-30T01:31:14.149Z,25.97
2018-03-30T01:32:13.432Z,25.89
2018-03-30T01:33:13.819Z,25.88
2018-03-30T01:34:13.389Z,25.86
2018-03-30T01:35:13.332Z,25.85
2018-03-30T01:36:13.836Z,25.84
2018-03-30T01:37:14.032Z,25.81
2018-03-30T01:38:14.191Z,25.89
2018-03-30T01:39:13.736Z,25.78
2018-03-30T01:40:13.759Z,25.88
2018-03-30T01:41:13.199Z,25.88
2018-03-30T01:42:13.854Z,25.79
2018-03-30T01:43:13.116Z,25.78
2018-03-30T01:44:13.684Z,25.85
2018-03-30T01:45:14.016Z,25.76
2018-03-30T01:46:13.587Z,25.76
2018-03-30T01:47:13.248Z,25.79
2018-03-30T01:48:13.544Z,25.74
2018-03-30T01:49:13.477Z,25.70
2018-03-30T01:50:12.968Z,25.71
2018-03-30T01:51:13.575Z,25.67
2018-03-30T01:52:13.199Z,25.76
2018-03-30T01:53:12.968Z,25.74
2018-03-30T01:54:12.840Z,25.69
2018-03-30T01:55:12.793Z,25.75
2018-03-30T01:56:13.376Z,25.69
2018-03-30T01:57:12.964Z,25.70
2018-03-30T01:58:13.280Z,25.74
2018-03-30T01:59:12.716Z,25.62
2018-03-30T02:00:13.249Z,25.64
2018-03-30T02:01:12.661Z,25.66
2018-03-30T02:02:13.842Z,25.64
2018-03-30T02:03:12.637Z,25.63
2018-03-30T02:04:12.596Z,25.56
2018-03-30T02:05:12.535Z,25.57
2018-03-30T02:06:13.109Z,25.52
2018-03-30T02:07:12.556Z,25.57
2018-03-30T02:08:12.675Z,25.52
2018-03-30T02:09:12.464Z,25.62
2018-03-30T02:10:12.433Z,25.57
2018-03-30T02:11:12.428Z,25.60
2018-03-30T02:12:12.903Z,25.56
2018-03-30T02:13:12.934Z,25.57
2018-03-30T02:14:13.056Z,25.45
2018-03-30T02:15:12.885Z,25.47
2018-03-30T02:16:12.269Z,25.42
2018-03-30T02:17:12.810Z,25.49
2018-03-30T02:18:13.073Z,25.48
2018-03-30T02:19:12.744Z,25.47
2018-03-30T02:20:13.296Z,25.44
2018-03-30T02:21:12.747Z,25.44
2018-03-30T02:22:12.124Z,25.33
2018-03-30T02:23:12.411Z,25.33
2018-03-30T02:24:12.063Z,25.41
2018-03-30T02:25:12.812Z,25.26
2018-03-30T02:26:12.008Z,25.39
2018-03-30T02:27:11.987Z,25.33
2018-03-30T02:28:11.966Z,25.37
2018-03-30T02:29:12.475Z,25.26
2018-03-30T02:31:11.966Z,25.30
2018-03-30T02:32:11.924Z,25.32
2018-03-30T02:33:11.863Z,25.29
2018-03-30T02:34:12.342Z,25.27
2018-03-30T02:35:12.006Z,25.30
2018-03-30T02:36:12.326Z,25.32
2018-03-30T02:37:11.727Z,25.26
2018-03-30T02:38:12.431Z,25.29
2018-03-30T02:39:12.740Z,25.33
2018-03-30T02:40:11.847Z,25.27
2018-03-30T02:41:12.220Z,25.34
2018-03-30T02:42:12.142Z,25.34
2018-03-30T02:43:12.110Z,25.20
2018-03-30T02:44:11.624Z,25.27
2018-03-30T02:45:12.213Z,25.26
2018-03-30T02:46:12.244Z,25.27
2018-03-30T02:47:11.950Z,25.22
2018-03-30T02:48:12.000Z,25.23
2018-03-30T02:49:11.419Z,25.23
2018-03-30T02:50:11.404Z,25.19
2018-03-30T02:51:11.806Z,25.12
2018-03-30T02:52:11.538Z,25.09
2018-03-30T02:53:11.846Z,25.08
2018-03-30T02:54:11.762Z,25.11
2018-03-30T02:55:11.257Z,25.19
2018-03-30T02:56:11.233Z,25.12
2018-03-30T02:57:11.845Z,25.17
2018-03-30T02:58:11.383Z,25.05
2018-03-30T02:59:11.679Z,25.12
2018-03-30T03:00:11.158Z,25.11
2018-03-30T03:01:11.707Z,25.07
2018-03-30T03:02:11.612Z,25.07
2018-03-30T03:03:12.021Z,25.08
2018-03-30T03:04:11.995Z,25.04
2018-03-30T03:05:11.000Z,25.11
2018-03-30T03:06:10.977Z,25.08
2018-03-30T03:07:10.972Z,25.00
2018-03-30T03:08:11.677Z,25.05
2018-03-30T03:09:11.335Z,25.09
2018-03-30T03:10:10.865Z,24.97
2018-03-30T03:11:11.271Z,25.00
2018-03-30T03:12:11.345Z,25.01
2018-03-30T03:13:11.521Z,25.02
2018-03-30T03:14:10.755Z,24.97
2018-03-30T03:15:10.726Z,25.04
2018-03-30T03:16:11.378Z,25.02
2018-03-30T03:17:11.419Z,24.97
2018-03-30T03:18:10.710Z,24.96
2018-03-30T03:19:10.823Z,24.96
2018-03-30T03:20:10.602Z,25.00
2018-03-30T03:21:11.128Z,25.04
2018-03-30T03:22:10.545Z,25.04
2018-03-30T03:23:10.521Z,25.04
2018-03-30T03:24:11.014Z,25.02
2018-03-30T03:25:10.674Z,24.96
2018-03-30T03:26:11.305Z,24.93
2018-03-30T03:27:11.390Z,24.94
2018-03-30T03:28:10.825Z,25.00
2018-03-30T03:29:10.775Z,24.97
2018-03-30T03:30:10.345Z,24.96
2018-03-30T03:31:11.076Z,24.96
2018-03-30T03:32:10.280Z,24.97
2018-03-30T03:33:10.714Z,25.02
2018-03-30T03:34:10.289Z,24.97
2018-03-30T03:35:10.727Z,24.97
2018-03-30T03:36:10.774Z,24.94
2018-03-30T03:37:10.356Z,24.97
2018-03-30T03:38:10.643Z,24.87
2018-03-30T03:39:10.187Z,24.89
2018-03-30T03:40:10.071Z,24.94
2018-03-30T03:41:10.978Z,24.97
2018-03-30T03:42:10.218Z,24.89
2018-03-30T03:43:10.507Z,24.93
2018-03-30T03:44:09.999Z,24.93
2018-03-30T03:45:10.470Z,24.92
2018-03-30T03:46:10.159Z,24.92
2018-03-30T03:47:10.658Z,24.90
2018-03-30T03:48:09.849Z,24.93
2018-03-30T03:49:09.819Z,24.96
2018-03-30T03:50:09.809Z,24.90
2018-03-30T03:51:10.291Z,24.93
2018-03-30T03:52:09.911Z,24.87
2018-03-30T03:53:09.928Z,24.90
2018-03-30T03:54:10.232Z,24.82
2018-03-30T03:55:10.228Z,24.90
2018-03-30T03:56:10.210Z,24.80
2018-03-30T03:57:10.367Z,24.87
2018-03-30T03:58:10.196Z,24.87
2018-03-30T03:59:10.731Z,24.85
2018-03-30T04:00:10.089Z,24.90
2018-03-30T04:01:09.501Z,24.94
2018-03-30T04:02:09.491Z,24.90
2018-03-30T04:03:09.480Z,24.94
2018-03-30T04:04:09.957Z,24.90
2018-03-30T04:05:09.613Z,24.86
2018-03-30T04:06:09.921Z,24.87
2018-03-30T04:07:09.397Z,24.77
2018-03-30T04:08:09.335Z,24.87
2018-03-30T04:09:09.295Z,24.86
2018-03-30T04:10:09.282Z,24.94
2018-03-30T04:11:09.439Z,24.87
2018-03-30T04:12:09.776Z,24.90
2018-03-30T04:13:09.259Z,24.75
2018-03-30T04:14:09.739Z,24.80
2018-03-30T04:15:09.147Z,24.82
2018-03-30T04:16:09.311Z,24.78
2018-03-30T04:17:09.127Z,24.78
2018-03-30T04:18:09.097Z,24.75
2018-03-30T04:19:09.065Z,24.85
2018-03-30T04:20:08.998Z,24.82
2018-03-30T04:21:09.218Z,24.85
2018-03-30T04:22:09.535Z,24.85
2018-03-30T04:23:09.455Z,24.77
2018-03-30T04:24:08.936Z,24.75
2018-03-30T04:25:09.415Z,24.85
2018-03-30T04:26:08.885Z,24.82
2018-03-30T04:27:09.062Z,24.85
2018-03-30T04:28:09.381Z,24.80
2018-03-30T04:29:08.782Z,24.75
2018-03-30T04:30:08.770Z,24.80
2018-03-30T04:31:08.714Z,24.77
2018-03-30T04:32:08.773Z,24.77
2018-03-30T04:33:09.371Z,24.74
2018-03-30T04:34:08.650Z,24.70
2018-03-30T04:35:09.132Z,24.70
2018-03-30T04:36:09.083Z,24.71
2018-03-30T04:37:09.086Z,24.75
2018-03-30T04:38:08.723Z,24.75
2018-03-30T04:39:08.508Z,24.80
2018-03-30T04:40:08.498Z,24.75
2018-03-30T04:41:08.481Z,24.78
2018-03-30T04:42:08.414Z,24.78
2018-03-30T04:43:08.412Z,24.78
2018-03-30T04:44:09.085Z,24.71
2018-03-30T04:45:08.359Z,24.75
2018-03-30T04:46:08.318Z,24.70
2018-03-30T04:47:08.288Z,24.70
2018-03-30T04:48:08.783Z,24.70
2018-03-30T04:49:08.239Z,24.75
2018-03-30T04:50:08.443Z,24.74
2018-03-30T04:51:08.211Z,24.71
2018-03-30T04:52:08.131Z,24.69
2018-03-30T04:53:08.157Z,24.63
2018-03-30T04:54:08.092Z,24.66
2018-03-30T04:55:08.277Z,24.59
2018-03-30T04:56:08.049Z,24.61
2018-03-30T04:57:08.061Z,24.63
2018-03-30T04:58:08.017Z,24.59
2018-03-30T04:59:07.960Z,24.55
2018-03-30T05:00:08.005Z,24.64
2018-03-30T05:01:08.118Z,24.56
2018-03-30T05:02:07.886Z,24.59
2018-03-30T05:03:07.892Z,24.64
2018-03-30T05:04:07.855Z,24.54
2018-03-30T05:05:07.805Z,24.49
2018-03-30T05:06:07.858Z,24.64
2018-03-30T05:07:07.949Z,24.51
2018-03-30T05:08:07.744Z,24.51
2018-03-30T05:09:07.691Z,24.61
2018-03-30T05:10:07.707Z,24.59
2018-03-30T05:11:07.667Z,24.54
2018-03-30T05:12:07.847Z,24.48
2018-03-30T05:13:07.594Z,24.52
2018-03-30T05:14:07.567Z,24.58
2018-03-30T05:15:07.544Z,24.55
2018-03-30T05:16:07.513Z,24.51
2018-03-30T05:17:07.488Z,24.49
2018-03-30T05:18:07.664Z,24.61
2018-03-30T05:19:07.433Z,24.56
2018-03-30T05:20:07.442Z,24.61
2018-03-30T05:21:07.356Z,24.48
2018-03-30T05:22:07.406Z,24.55
2018-03-30T05:23:07.331Z,24.52
2018-03-30T05:24:07.478Z,24.51
2018-03-30T05:25:07.267Z,24.51
2018-03-30T05:26:07.256Z,24.56
2018-03-30T05:27:07.215Z,24.59
2018-03-30T05:28:07.222Z,24.56
2018-03-30T05:29:07.148Z,24.48
2018-03-30T05:30:07.324Z,24.55
2018-03-30T05:31:07.099Z,24.51
2018-03-30T05:32:07.062Z,24.58
2018-03-30T05:33:07.055Z,24.51
2018-03-30T05:34:07.044Z,24.51
2018-03-30T05:35:07.088Z,24.54
2018-03-30T05:36:07.169Z,24.61
2018-03-30T05:37:06.958Z,24.64
2018-03-30T05:38:06.928Z,24.58
2018-03-30T05:39:06.922Z,24.55
2018-03-30T05:40:06.870Z,24.59
2018-03-30T05:41:06.870Z,24.63
2018-03-30T05:42:06.993Z,24.55
2018-03-30T05:43:06.790Z,24.54
2018-03-30T05:44:06.769Z,24.51
2018-03-30T05:45:06.732Z,24.55
2018-03-30T05:46:06.693Z,24.69
2018-03-30T05:47:06.879Z,24.63
2018-03-30T05:48:06.649Z,24.54
2018-03-30T05:49:06.604Z,24.56
2018-03-30T05:50:06.615Z,24.59
2018-03-30T05:51:06.554Z,24.59
2018-03-30T05:52:06.767Z,24.58
2018-03-30T05:53:06.529Z,24.56
2018-03-30T05:54:06.491Z,24.52
2018-03-30T05:55:06.464Z,24.59
2018-03-30T05:56:06.471Z,24.55
2018-03-30T05:57:06.416Z,24.52
2018-03-30T05:58:06.586Z,24.49
2018-03-30T05:59:06.353Z,24.56
2018-03-30T06:00:06.319Z,24.55
2018-03-30T06:01:06.304Z,24.46
2018-03-30T06:02:06.292Z,24.51
2018-03-30T06:03:06.237Z,24.55
2018-03-30T06:04:06.478Z,24.55
2018-03-30T06:05:06.205Z,24.49
2018-03-30T06:06:06.150Z,24.55
2018-03-30T06:07:06.166Z,24.52
2018-03-30T06:08:06.166Z,24.52
2018-03-30T06:09:06.074Z,24.51
2018-03-30T06:10:06.256Z,24.55
2018-03-30T06:11:06.070Z,24.44
2018-03-30T06:12:06.003Z,24.51
2018-03-30T06:13:05.998Z,24.49
2018-03-30T06:14:05.951Z,24.51
2018-03-30T06:15:06.017Z,24.49
2018-03-30T06:16:06.051Z,24.51
2018-03-30T06:17:05.893Z,24.40
2018-03-30T06:18:05.884Z,24.46
2018-03-30T06:19:05.854Z,24.44
2018-03-30T06:20:05.799Z,24.59
2018-03-30T06:21:05.979Z,24.55
2018-03-30T06:22:05.763Z,24.42
2018-03-30T06:23:05.743Z,24.37
2018-03-30T06:24:05.696Z,24.36
2018-03-30T06:25:05.687Z,24.42
2018-03-30T06:26:05.833Z,24.52
2018-03-30T06:27:05.595Z,24.42
2018-03-30T06:28:05.585Z,24.37
2018-03-30T06:29:05.577Z,24.36
2018-03-30T06:30:05.533Z,24.36
2018-03-30T06:31:05.698Z,24.36
2018-03-30T06:32:05.480Z,24.32
2018-03-30T06:33:05.463Z,24.33
2018-03-30T06:34:05.439Z,24.21
2018-03-30T06:35:05.503Z,24.26
2018-03-30T06:36:05.363Z,24.26
2018-03-30T06:37:05.544Z,24.26
2018-03-30T06:38:05.304Z,24.29
2018-03-30T06:39:05.324Z,24.17
2018-03-30T06:40:05.292Z,24.22
2018-03-30T06:41:05.270Z,24.11
2018-03-30T06:42:05.212Z,24.15
2018-03-30T06:43:05.383Z,24.29
2018-03-30T06:44:05.155Z,24.26
2018-03-30T06:45:05.099Z,24.19
2018-03-30T06:46:05.166Z,24.24
2018-03-30T06:47:05.100Z,24.22
2018-03-30T06:48:05.098Z,24.26
2018-03-30T06:49:05.217Z,24.22
2018-03-30T06:50:05.067Z,24.26
2018-03-30T06:51:04.976Z,24.22
2018-03-30T06:52:04.937Z,24.24
2018-03-30T06:53:04.910Z,24.26
2018-03-30T06:54:05.079Z,24.26
2018-03-30T06:55:04.879Z,24.22
2018-03-30T06:56:04.812Z,24.27
2018-03-30T06:57:04.799Z,24.24
2018-03-30T06:58:04.806Z,24.24
2018-03-30T06:59:04.873Z,24.22
2018-03-30T07:00:04.736Z,24.26
2018-03-30T07:01:04.729Z,24.26
2018-03-30T07:02:04.673Z,24.21
2018-03-30T07:03:04.664Z,24.19
2018-03-30T07:04:04.822Z,24.19
2018-03-30T07:05:04.565Z,24.26
2018-03-30T07:06:04.590Z,24.22
2018-03-30T07:07:04.525Z,24.26
2018-03-30T07:08:04.533Z,24.22
2018-03-30T07:09:04.458Z,24.24
2018-03-30T07:10:04.651Z,24.32
2018-03-30T07:11:04.433Z,24.42
2018-03-30T07:12:04.396Z,24.42
2018-03-30T07:13:04.346Z,24.37
2018-03-30T07:14:04.333Z,24.36
2018-03-30T07:15:04.305Z,24.37
2018-03-30T07:16:04.528Z,24.34
2018-03-30T07:17:04.239Z,24.34
2018-03-30T07:18:04.244Z,24.39
2018-03-30T07:19:04.209Z,24.36
2018-03-30T07:20:04.212Z,24.42
2018-03-30T07:21:04.267Z,24.37
2018-03-30T07:22:04.311Z,24.40
2018-03-30T07:23:04.098Z,24.33
2018-03-30T07:24:04.069Z,24.34
2018-03-30T07:25:04.031Z,24.26
2018-03-30T07:26:03.999Z,24.27
2018-03-30T07:27:04.196Z,24.26
2018-03-30T07:28:03.968Z,24.21
2018-03-30T07:29:03.937Z,24.21
2018-03-30T07:30:03.902Z,24.11
2018-03-30T07:31:03.863Z,24.11
2018-03-30T07:32:04.038Z,24.04
2018-03-30T07:33:03.828Z,24.07
2018-03-30T07:34:03.846Z,24.08
2018-03-30T07:35:03.777Z,24.07
2018-03-30T07:36:03.733Z,24.04
2018-03-30T07:37:03.842Z,24.03
2018-03-30T07:38:03.700Z,24.08
2018-03-30T07:39:03.690Z,24.08
2018-03-30T07:40:03.642Z,24.07
2018-03-30T07:41:03.610Z,24.08
2018-03-30T07:42:03.796Z,23.97
2018-03-30T07:43:03.586Z,23.97
2018-03-30T07:44:03.539Z,23.94
2018-03-30T07:45:03.506Z,23.93
2018-03-30T07:46:03.466Z,24.00
2018-03-30T07:47:03.441Z,24.02
2018-03-30T07:48:03.612Z,23.92
2018-03-30T07:49:03.395Z,23.93
2018-03-30T07:50:03.390Z,23.94
2018-03-30T07:51:03.342Z,23.93
2018-03-30T07:52:03.323Z,23.94
2018-03-30T07:53:03.315Z,24.09
2018-03-30T07:54:03.461Z,24.03
2018-03-30T07:55:03.255Z,23.92
2018-03-30T07:56:03.217Z,23.90
2018-03-30T07:57:03.185Z,23.94
2018-03-30T07:58:03.149Z,23.92
2018-03-30T07:59:03.158Z,23.90
2018-03-30T08:00:03.330Z,23.96
2018-03-30T08:01:03.059Z,23.93
2018-03-30T08:02:03.074Z,23.96
2018-03-30T08:03:03.006Z,23.90
2018-03-30T08:04:02.981Z,23.90
2018-03-30T08:05:03.160Z,23.82
2018-03-30T08:06:02.989Z,23.84
2018-03-30T08:07:02.898Z,23.94
2018-03-30T08:08:02.871Z,23.84
2018-03-30T08:09:02.859Z,23.84
2018-03-30T08:10:03.045Z,23.82
2018-03-30T08:11:02.794Z,23.82
2018-03-30T08:12:02.762Z,23.82
2018-03-30T08:13:02.753Z,23.84
2018-03-30T08:14:02.692Z,23.85
2018-03-30T08:15:02.897Z,23.77
2018-03-30T08:16:02.652Z,23.75
2018-03-30T08:17:02.640Z,23.75
2018-03-30T08:18:02.601Z,23.79
2018-03-30T08:19:02.590Z,23.85
2018-03-30T08:20:02.744Z,23.85
2018-03-30T08:21:02.522Z,23.89
2018-03-30T08:22:02.529Z,23.89
2018-03-30T08:23:02.495Z,23.92
2018-03-30T08:24:02.443Z,23.92
2018-03-30T08:25:02.406Z,23.92
2018-03-30T08:26:02.621Z,23.82
2018-03-30T08:27:02.363Z,23.92
2018-03-30T08:28:02.319Z,23.82
2018-03-30T08:29:02.305Z,23.84
2018-03-30T08:30:02.354Z,23.84
2018-03-30T08:31:02.243Z,23.77
2018-03-30T08:32:02.432Z,23.74
2018-03-30T08:33:02.246Z,23.67
2018-03-30T08:34:02.157Z,23.66
2018-03-30T08:35:02.175Z,23.64
2018-03-30T08:36:02.115Z,23.60
2018-03-30T08:37:02.346Z,23.57
2018-03-30T08:38:02.056Z,23.48
2018-03-30T08:39:02.009Z,23.60
2018-03-30T08:40:01.978Z,23.47
2018-03-30T08:41:02.010Z,23.52
2018-03-30T08:42:02.149Z,23.44
2018-03-30T08:43:01.917Z,23.57
2018-03-30T08:44:01.897Z,23.45
2018-03-30T08:45:01.852Z,23.53
2018-03-30T08:46:01.848Z,23.41
2018-03-30T08:47:02.025Z,23.47
2018-03-30T08:48:01.761Z,23.45
2018-03-30T08:49:01.845Z,23.44
2018-03-30T08:50:01.712Z,23.56
2018-03-30T08:51:01.707Z,23.57
2018-03-30T08:52:01.880Z,23.52
2018-03-30T08:53:01.649Z,23.44
2018-03-30T08:54:01.646Z,23.47
2018-03-30T08:55:01.626Z,23.57
2018-03-30T08:56:01.563Z,23.57
2018-03-30T08:57:01.580Z,23.44
2018-03-30T08:58:01.716Z,23.45
2018-03-30T08:59:01.491Z,23.47
2018-03-30T09:00:01.482Z,23.47
2018-03-30T09:01:01.421Z,23.45
2018-03-30T09:02:01.415Z,23.52
2018-03-30T09:03:01.375Z,23.56
2018-03-30T09:04:01.559Z,23.45
2018-03-30T09:05:01.313Z,23.53
2018-03-30T09:06:01.272Z,23.57
2018-03-30T09:07:01.273Z,23.57
2018-03-30T09:08:01.238Z,23.52
2018-03-30T09:09:01.200Z,23.55
2018-03-30T09:10:01.385Z,23.42
2018-03-30T09:11:01.160Z,23.53
2018-03-30T09:12:01.125Z,23.45
2018-03-30T09:13:01.079Z,23.56
2018-03-30T09:14:01.077Z,23.41
2018-03-30T09:15:01.245Z,23.47
2018-03-30T09:16:01.021Z,23.47
2018-03-30T09:17:00.988Z,23.42
2018-03-30T09:18:00.974Z,23.52
2018-03-30T09:19:00.927Z,23.45
2018-03-30T09:20:01.115Z,23.45
2018-03-30T09:21:00.886Z,23.47
2018-03-30T09:22:00.867Z,23.37
2018-03-30T09:23:00.855Z,23.45
2018-03-30T09:24:00.788Z,23.38
2018-03-30T09:25:00.978Z,23.41
2018-03-30T09:26:00.745Z,23.34
2018-03-30T09:27:00.757Z,23.34
2018-03-30T09:28:00.688Z,23.35
2018-03-30T09:29:00.677Z,23.37
2018-03-30T09:30:00.833Z,23.32
2018-03-30T09:31:00.597Z,23.37
2018-03-30T09:32:00.553Z,23.38
2018-03-30T09:33:00.523Z,23.35
2018-03-30T09:34:00.503Z,23.18
2018-03-30T09:35:00.561Z,23.28
2018-03-30T09:36:00.697Z,23.19
2018-03-30T09:37:00.452Z,23.15
2018-03-30T09:38:00.451Z,23.28
2018-03-30T09:39:00.365Z,23.21
2018-03-30T09:40:00.362Z,23.14
2018-03-30T09:41:00.359Z,23.16
2018-03-30T09:42:00.502Z,23.15
2018-03-30T09:43:00.282Z,23.15
2018-03-30T09:44:00.233Z,23.21
2018-03-30T09:45:00.204Z,23.18
2018-03-30T09:46:00.167Z,23.26
2018-03-30T09:47:00.154Z,23.28
2018-03-30T09:48:00.396Z,23.14
2018-03-30T09:49:00.115Z,23.28
2018-03-30T09:50:00.112Z,23.18
2018-03-30T09:51:00.070Z,23.22
2018-03-30T09:52:00.053Z,23.32
2018-03-30T09:53:00.201Z,23.24
2018-03-30T09:53:59.976Z,23.19
2018-03-30T09:54:59.945Z,23.12
2018-03-30T09:55:59.905Z,23.15
2018-03-30T09:56:59.888Z,23.18
2018-03-30T09:58:00.063Z,23.18
2018-03-30T09:58:59.845Z,23.16
2018-03-30T09:59:59.807Z,23.15
2018-03-30T10:00:59.776Z,23.15
2018-03-30T10:01:59.745Z,23.14
2018-03-30T10:02:59.926Z,23.15
2018-03-30T10:03:59.687Z,23.19
2018-03-30T10:04:59.650Z,23.18
2018-03-30T10:05:59.630Z,23.16
2018-03-30T10:06:59.615Z,23.12
2018-03-30T10:07:59.637Z,23.09
2018-03-30T10:08:59.775Z,23.24
2018-03-30T10:09:59.524Z,23.22
2018-03-30T10:10:59.484Z,23.21
2018-03-30T10:11:59.459Z,23.32
2018-03-30T10:12:59.458Z,23.40
2018-03-30T10:13:59.431Z,23.29
2018-03-30T10:14:59.591Z,23.40
2018-03-30T10:15:59.368Z,23.37
2018-03-30T10:16:59.308Z,23.35
2018-03-30T10:17:59.302Z,23.35
2018-03-30T10:18:59.310Z,23.45
2018-03-30T10:19:59.268Z,23.48
2018-03-30T10:20:59.497Z,23.55
2018-03-30T10:21:59.178Z,23.32
2018-03-30T10:22:59.146Z,23.50
2018-03-30T10:23:59.150Z,23.41
2018-03-30T10:24:59.124Z,23.42
2018-03-30T10:25:59.294Z,23.45
2018-03-30T10:26:59.062Z,23.45
2018-03-30T10:27:59.066Z,23.50
2018-03-30T10:28:59.020Z,23.42
2018-03-30T10:29:58.974Z,23.41
2018-03-30T10:30:59.154Z,23.45
2018-03-30T10:31:58.910Z,23.50
2018-03-30T10:32:58.885Z,23.45
2018-03-30T10:33:58.857Z,23.37
2018-03-30T10:34:58.821Z,23.37
2018-03-30T10:35:59.000Z,23.37
2018-03-30T10:36:58.854Z,23.37
2018-03-30T10:37:58.784Z,23.29
2018-03-30T10:38:58.738Z,23.35
2018-03-30T10:39:58.728Z,23.29
2018-03-30T10:40:58.657Z,23.32
2018-03-30T10:41:58.856Z,23.26
2018-03-30T10:42:58.635Z,23.29
2018-03-30T10:43:58.585Z,23.22
2018-03-30T10:44:58.541Z,23.32
2018-03-30T10:45:58.527Z,23.29
2018-03-30T10:46:58.699Z,23.26
2018-03-30T10:47:58.460Z,23.16
2018-03-30T10:48:58.432Z,23.26
2018-03-30T10:49:58.447Z,23.29
2018-03-30T10:50:58.392Z,23.37
2018-03-30T10:51:58.352Z,23.32
2018-03-30T10:52:58.532Z,23.34
2018-03-30T10:53:58.311Z,23.24
2018-03-30T10:54:58.282Z,23.21
2018-03-30T10:55:58.254Z,23.26
2018-03-30T10:56:58.227Z,23.18
2018-03-30T10:57:58.200Z,23.16
2018-03-30T10:58:58.381Z,23.29
2018-03-30T10:59:58.147Z,23.25
2018-03-30T11:00:58.141Z,23.29
2018-03-30T11:01:58.065Z,23.37
2018-03-30T11:02:58.063Z,23.21
2018-03-30T11:03:58.234Z,23.32
2018-03-30T11:04:57.997Z,23.26
2018-03-30T11:05:57.979Z,23.42
2018-03-30T11:06:57.943Z,23.42
2018-03-30T11:07:57.915Z,23.41
2018-03-30T11:08:58.079Z,23.32
2018-03-30T11:09:57.859Z,23.42
2018-03-30T11:10:57.826Z,23.40
2018-03-30T11:11:57.800Z,23.32
2018-03-30T11:12:57.803Z,23.35
2018-03-30T11:13:57.806Z,23.29
2018-03-30T11:14:57.928Z,23.35
2018-03-30T11:15:57.691Z,23.32
2018-03-30T11:16:57.671Z,23.35
2018-03-30T11:17:57.646Z,23.32
2018-03-30T11:18:57.617Z,23.38
2018-03-30T11:19:57.637Z,23.37
2018-03-30T11:20:57.763Z,23.42
2018-03-30T11:21:57.538Z,23.47
2018-03-30T11:22:57.498Z,23.50
2018-03-30T11:23:57.481Z,23.42
2018-03-30T11:24:57.428Z,23.41
2018-03-30T11:25:57.401Z,23.47
2018-03-30T11:26:57.615Z,23.44
2018-03-30T11:27:57.376Z,23.40
2018-03-30T11:28:57.330Z,23.40
2018-03-30T11:29:57.300Z,23.37
2018-03-30T11:30:57.272Z,23.37
2018-03-30T11:31:57.261Z,23.40
2018-03-30T11:32:57.404Z,23.40
2018-03-30T11:33:57.201Z,23.41
2018-03-30T11:34:57.154Z,23.45
2018-03-30T11:35:57.115Z,23.45
2018-03-30T11:36:57.106Z,23.47
2018-03-30T11:37:57.293Z,23.45
2018-03-30T11:38:57.046Z,23.42
2018-03-30T11:39:57.022Z,23.41
2018-03-30T11:40:56.997Z,23.37
2018-03-30T11:41:56.973Z,23.37
2018-03-30T11:42:57.153Z,23.38
2018-03-30T11:43:56.898Z,23.42
2018-03-30T11:44:56.870Z,23.53
2018-03-30T11:45:56.855Z,23.55
2018-03-30T11:46:56.838Z,23.45
2018-03-30T11:47:56.839Z,23.52
2018-03-30T11:48:56.985Z,23.44
2018-03-30T11:49:56.739Z,23.60
2018-03-30T11:50:56.732Z,23.53
2018-03-30T11:51:56.697Z,23.55
2018-03-30T11:52:56.699Z,23.50
2018-03-30T11:53:56.863Z,23.42
2018-03-30T11:54:56.607Z,23.53
2018-03-30T11:55:56.599Z,23.48
2018-03-30T11:56:56.540Z,23.52
2018-03-30T11:57:56.565Z,23.56
2018-03-30T11:58:56.710Z,23.45
2018-03-30T11:59:56.475Z,23.56
2018-03-30T12:00:56.459Z,23.44
2018-03-30T12:01:56.429Z,23.56
2018-03-30T12:02:56.398Z,23.45
2018-03-30T12:03:56.389Z,23.56
2018-03-30T12:04:56.524Z,23.44
2018-03-30T12:05:56.320Z,23.52
2018-03-30T12:06:56.303Z,23.64
2018-03-30T12:07:56.277Z,23.64
2018-03-30T12:08:56.243Z,23.67
2018-03-30T12:09:56.211Z,23.85
2018-03-30T12:10:56.542Z,23.87
2018-03-30T12:11:56.125Z,24.07
2018-03-30T12:12:56.118Z,24.45
2018-03-30T12:13:56.092Z,24.75
2018-03-30T12:14:56.063Z,25.12
2018-03-30T12:15:56.236Z,25.22
2018-03-30T12:16:56.015Z,25.22
2018-03-30T12:17:55.974Z,25.17
2018-03-30T12:18:55.943Z,25.32
2018-03-30T12:19:56.320Z,25.27
2018-03-30T12:20:56.215Z,25.38
2018-03-30T12:21:56.446Z,25.45
2018-03-30T12:22:56.006Z,25.56
2018-03-30T12:23:55.947Z,25.64
2018-03-30T12:24:55.936Z,25.52
2018-03-30T12:25:56.048Z,25.59
2018-03-30T12:26:55.811Z,25.63
2018-03-30T12:27:55.911Z,25.70
2018-03-30T12:28:55.703Z,25.89
2018-03-30T12:29:55.667Z,26.22
2018-03-30T12:30:55.610Z,26.61
2018-03-30T12:31:55.678Z,27.18
2018-03-30T12:32:55.784Z,27.79
2018-03-30T12:33:55.558Z,28.09
2018-03-30T12:34:55.505Z,28.49
2018-03-30T12:35:55.479Z,28.97
2018-03-30T12:36:55.504Z,29.38
2018-03-30T12:37:55.442Z,29.72
2018-03-30T12:38:55.618Z,29.91
2018-03-30T12:39:55.372Z,30.09
2018-03-30T12:40:55.370Z,30.42
2018-03-30T12:41:55.336Z,30.67
2018-03-30T12:42:55.293Z,30.81
2018-03-30T12:43:55.290Z,31.12
2018-03-30T12:44:55.444Z,31.21
2018-03-30T12:45:55.247Z,31.34
2018-03-30T12:46:55.289Z,31.44
2018-03-30T12:47:55.170Z,31.38
2018-03-30T12:48:55.172Z,31.34
2018-03-30T12:49:55.331Z,31.03
2018-03-30T12:50:55.113Z,30.69
2018-03-30T12:51:55.067Z,30.34
2018-03-30T12:52:55.078Z,29.85